sensor_id;sensor_type;location;lat;lon;timestamp;P1;durP1;ratioP1;P2;durP2;ratioP2
46136;SDS011;31871;49.418;8.752;2022-11-12T00:02:18;11.10;;;5.15;;
46136;SDS011;31871;49.418;8.752;2022-11-12T00:04:43;11.00;;;4.93;;
46136;SDS011;31871;49.418;8.752;2022-11-12T00:07:09;10.18;;;4.82;;
46136;SDS011;31871;49.418;8.752;2022-11-12T00:09:34;15.70;;;5.43;;
46136;SDS011;31871;49.418;8.752;2022-11-12T00:12:00;11.52;;;5.30;;
46136;SDS011;31871;49.418;8.752;2022-11-12T00:14:25;17.92;;;5.78;;
46136;SDS011;31871;49.418;8.752;2022-11-12T00:16:51;14.05;;;6.03;;
46136;SDS011;31871;49.418;8.752;2022-11-12T00:19:16;11.88;;;5.78;;
46136;SDS011;31871;49.418;8.752;2022-11-12T00:21:42;19.15;;;5.72;;
46136;SDS011;31871;49.418;8.752;2022-11-12T00:24:07;12.23;;;5.38;;
46136;SDS011;31871;49.418;8.752;2022-11-12T00:26:33;12.10;;;5.05;;
46136;SDS011;31871;49.418;8.752;2022-11-12T00:28:59;14.93;;;5.63;;
46136;SDS011;31871;49.418;8.752;2022-11-12T00:31:24;12.05;;;5.38;;
46136;SDS011;31871;49.418;8.752;2022-11-12T00:33:50;16.02;;;6.10;;
46136;SDS011;31871;49.418;8.752;2022-11-12T00:36:15;10.10;;;4.90;;
46136;SDS011;31871;49.418;8.752;2022-11-12T00:38:41;17.63;;;5.15;;
46136;SDS011;31871;49.418;8.752;2022-11-12T00:41:06;14.77;;;5.47;;
46136;SDS011;31871;49.418;8.752;2022-11-12T00:43:32;15.02;;;4.88;;
46136;SDS011;31871;49.418;8.752;2022-11-12T00:45:57;10.23;;;4.80;;
46136;SDS011;31871;49.418;8.752;2022-11-12T00:48:23;11.13;;;5.15;;
46136;SDS011;31871;49.418;8.752;2022-11-12T00:50:49;16.13;;;6.05;;
46136;SDS011;31871;49.418;8.752;2022-11-12T00:53:14;16.75;;;5.38;;
46136;SDS011;31871;49.418;8.752;2022-11-12T00:55:40;21.63;;;5.82;;
46136;SDS011;31871;49.418;8.752;2022-11-12T00:58:05;16.10;;;5.75;;
46136;SDS011;31871;49.418;8.752;2022-11-12T01:00:31;12.73;;;5.70;;
46136;SDS011;31871;49.418;8.752;2022-11-12T01:02:56;12.15;;;4.82;;
46136;SDS011;31871;49.418;8.752;2022-11-12T01:05:22;13.95;;;5.45;;
46136;SDS011;31871;49.418;8.752;2022-11-12T01:07:47;11.70;;;5.82;;
46136;SDS011;31871;49.418;8.752;2022-11-12T01:10:13;13.45;;;6.20;;
46136;SDS011;31871;49.418;8.752;2022-11-12T01:12:39;13.90;;;5.45;;
46136;SDS011;31871;49.418;8.752;2022-11-12T01:15:05;18.40;;;5.10;;
46136;SDS011;31871;49.418;8.752;2022-11-12T01:17:31;12.45;;;5.47;;
46136;SDS011;31871;49.418;8.752;2022-11-12T01:19:58;20.95;;;5.72;;
46136;SDS011;31871;49.418;8.752;2022-11-12T01:22:23;32.38;;;4.68;;
46136;SDS011;31871;49.418;8.752;2022-11-12T01:24:49;44.90;;;4.72;;
46136;SDS011;31871;49.418;8.752;2022-11-12T01:27:15;31.13;;;5.32;;
46136;SDS011;31871;49.418;8.752;2022-11-12T01:29:40;33.20;;;4.25;;
46136;SDS011;31871;49.418;8.752;2022-11-12T01:32:06;40.85;;;5.18;;
46136;SDS011;31871;49.418;8.752;2022-11-12T01:34:32;37.58;;;5.00;;
46136;SDS011;31871;49.418;8.752;2022-11-12T01:36:58;12.80;;;4.43;;
46136;SDS011;31871;49.418;8.752;2022-11-12T01:39:23;37.72;;;5.60;;
46136;SDS011;31871;49.418;8.752;2022-11-12T01:41:49;18.50;;;5.32;;
46136;SDS011;31871;49.418;8.752;2022-11-12T01:44:19;20.88;;;5.00;;
46136;SDS011;31871;49.418;8.752;2022-11-12T01:47:20;17.20;;;4.95;;
46136;SDS011;31871;49.418;8.752;2022-11-12T01:50:06;23.35;;;5.10;;
46136;SDS011;31871;49.418;8.752;2022-11-12T01:52:42;16.65;;;5.57;;
46136;SDS011;31871;49.418;8.752;2022-11-12T01:55:15;16.98;;;5.55;;
46136;SDS011;31871;49.418;8.752;2022-11-12T01:57:47;11.63;;;5.07;;
46136;SDS011;31871;49.418;8.752;2022-11-12T02:00:17;13.20;;;5.38;;
46136;SDS011;31871;49.418;8.752;2022-11-12T02:02:43;20.80;;;6.00;;
46136;SDS011;31871;49.418;8.752;2022-11-12T02:05:15;19.98;;;6.03;;
46136;SDS011;31871;49.418;8.752;2022-11-12T02:07:42;16.27;;;6.13;;
46136;SDS011;31871;49.418;8.752;2022-11-12T02:10:11;30.35;;;6.22;;
46136;SDS011;31871;49.418;8.752;2022-11-12T02:12:38;15.23;;;5.93;;
46136;SDS011;31871;49.418;8.752;2022-11-12T02:15:22;31.30;;;5.85;;
46136;SDS011;31871;49.418;8.752;2022-11-12T02:17:49;25.40;;;4.72;;
46136;SDS011;31871;49.418;8.752;2022-11-12T02:20:14;17.98;;;5.50;;
46136;SDS011;31871;49.418;8.752;2022-11-12T02:22:40;22.25;;;5.47;;
46136;SDS011;31871;49.418;8.752;2022-11-12T02:25:07;43.25;;;5.55;;
46136;SDS011;31871;49.418;8.752;2022-11-12T02:27:37;26.73;;;5.97;;
46136;SDS011;31871;49.418;8.752;2022-11-12T02:30:03;13.77;;;5.20;;
46136;SDS011;31871;49.418;8.752;2022-11-12T02:32:29;25.30;;;5.90;;
46136;SDS011;31871;49.418;8.752;2022-11-12T02:34:55;31.73;;;6.28;;
46136;SDS011;31871;49.418;8.752;2022-11-12T02:37:20;22.10;;;6.47;;
46136;SDS011;31871;49.418;8.752;2022-11-12T02:39:46;40.70;;;5.72;;
46136;SDS011;31871;49.418;8.752;2022-11-12T02:42:11;19.38;;;4.80;;
46136;SDS011;31871;49.418;8.752;2022-11-12T02:44:37;17.30;;;5.47;;
46136;SDS011;31871;49.418;8.752;2022-11-12T02:47:02;23.67;;;6.15;;
46136;SDS011;31871;49.418;8.752;2022-11-12T02:49:28;11.60;;;5.50;;
46136;SDS011;31871;49.418;8.752;2022-11-12T02:51:53;23.70;;;5.05;;
46136;SDS011;31871;49.418;8.752;2022-11-12T02:54:19;24.38;;;5.22;;
46136;SDS011;31871;49.418;8.752;2022-11-12T02:56:44;16.13;;;5.30;;
46136;SDS011;31871;49.418;8.752;2022-11-12T02:59:10;11.15;;;4.43;;
46136;SDS011;31871;49.418;8.752;2022-11-12T03:01:35;22.83;;;5.25;;
46136;SDS011;31871;49.418;8.752;2022-11-12T03:04:01;14.55;;;4.40;;
46136;SDS011;31871;49.418;8.752;2022-11-12T03:06:26;9.40;;;4.35;;
46136;SDS011;31871;49.418;8.752;2022-11-12T03:08:52;12.77;;;5.10;;
46136;SDS011;31871;49.418;8.752;2022-11-12T03:11:17;9.93;;;4.28;;
46136;SDS011;31871;49.418;8.752;2022-11-12T03:13:43;10.75;;;4.40;;
46136;SDS011;31871;49.418;8.752;2022-11-12T03:16:09;19.75;;;4.63;;
46136;SDS011;31871;49.418;8.752;2022-11-12T03:18:35;17.08;;;5.13;;
46136;SDS011;31871;49.418;8.752;2022-11-12T03:21:01;12.02;;;5.20;;
46136;SDS011;31871;49.418;8.752;2022-11-12T03:23:28;13.25;;;5.80;;
46136;SDS011;31871;49.418;8.752;2022-11-12T03:25:53;17.45;;;4.78;;
46136;SDS011;31871;49.418;8.752;2022-11-12T03:28:19;11.32;;;4.90;;
46136;SDS011;31871;49.418;8.752;2022-11-12T03:30:44;10.30;;;5.15;;
46136;SDS011;31871;49.418;8.752;2022-11-12T03:33:11;21.55;;;4.10;;
46136;SDS011;31871;49.418;8.752;2022-11-12T03:35:39;10.07;;;4.93;;
46136;SDS011;31871;49.418;8.752;2022-11-12T03:38:06;15.70;;;4.78;;
46136;SDS011;31871;49.418;8.752;2022-11-12T03:40:32;9.20;;;4.38;;
46136;SDS011;31871;49.418;8.752;2022-11-12T03:42:58;8.85;;;3.78;;
46136;SDS011;31871;49.418;8.752;2022-11-12T03:45:24;9.35;;;3.85;;
46136;SDS011;31871;49.418;8.752;2022-11-12T03:47:52;8.80;;;3.60;;
46136;SDS011;31871;49.418;8.752;2022-11-12T03:50:20;13.98;;;4.22;;
46136;SDS011;31871;49.418;8.752;2022-11-12T03:52:48;9.10;;;4.13;;
46136;SDS011;31871;49.418;8.752;2022-11-12T03:55:17;15.10;;;4.22;;
46136;SDS011;31871;49.418;8.752;2022-11-12T03:57:44;20.77;;;4.70;;
46136;SDS011;31871;49.418;8.752;2022-11-12T04:00:12;12.88;;;4.20;;
46136;SDS011;31871;49.418;8.752;2022-11-12T04:02:38;9.23;;;4.03;;
46136;SDS011;31871;49.418;8.752;2022-11-12T04:05:04;7.90;;;3.58;;
46136;SDS011;31871;49.418;8.752;2022-11-12T04:07:55;8.10;;;3.92;;
46136;SDS011;31871;49.418;8.752;2022-11-12T04:10:44;10.18;;;3.90;;
46136;SDS011;31871;49.418;8.752;2022-11-12T04:13:10;10.32;;;3.72;;
46136;SDS011;31871;49.418;8.752;2022-11-12T04:18:43;20.13;;;4.68;;
46136;SDS011;31871;49.418;8.752;2022-11-12T04:21:33;14.40;;;3.83;;
46136;SDS011;31871;49.418;8.752;2022-11-12T04:27:07;6.57;;;3.63;;
46136;SDS011;31871;49.418;8.752;2022-11-12T04:29:35;20.05;;;4.22;;
46136;SDS011;31871;49.418;8.752;2022-11-12T04:32:19;14.35;;;4.13;;
46136;SDS011;31871;49.418;8.752;2022-11-12T04:34:45;19.35;;;4.30;;
46136;SDS011;31871;49.418;8.752;2022-11-12T04:37:11;7.07;;;3.70;;
46136;SDS011;31871;49.418;8.752;2022-11-12T04:39:36;8.13;;;3.90;;
46136;SDS011;31871;49.418;8.752;2022-11-12T04:42:02;7.60;;;3.58;;
46136;SDS011;31871;49.418;8.752;2022-11-12T04:44:46;7.03;;;3.50;;
46136;SDS011;31871;49.418;8.752;2022-11-12T04:47:21;7.47;;;3.22;;
46136;SDS011;31871;49.418;8.752;2022-11-12T04:49:46;8.05;;;3.90;;
46136;SDS011;31871;49.418;8.752;2022-11-12T04:52:12;12.32;;;3.88;;
46136;SDS011;31871;49.418;8.752;2022-11-12T04:54:37;7.90;;;3.45;;
46136;SDS011;31871;49.418;8.752;2022-11-12T04:57:03;9.15;;;3.53;;
46136;SDS011;31871;49.418;8.752;2022-11-12T04:59:29;17.48;;;3.95;;
46136;SDS011;31871;49.418;8.752;2022-11-12T05:01:54;17.63;;;3.75;;
46136;SDS011;31871;49.418;8.752;2022-11-12T05:04:20;10.88;;;3.80;;
46136;SDS011;31871;49.418;8.752;2022-11-12T05:06:46;11.35;;;3.47;;
46136;SDS011;31871;49.418;8.752;2022-11-12T05:09:19;8.73;;;3.85;;
46136;SDS011;31871;49.418;8.752;2022-11-12T05:11:45;10.07;;;3.45;;
46136;SDS011;31871;49.418;8.752;2022-11-12T05:14:11;10.75;;;5.05;;
46136;SDS011;31871;49.418;8.752;2022-11-12T05:16:37;11.10;;;4.97;;
46136;SDS011;31871;49.418;8.752;2022-11-12T05:19:03;8.07;;;3.58;;
46136;SDS011;31871;49.418;8.752;2022-11-12T05:21:29;6.78;;;3.47;;
46136;SDS011;31871;49.418;8.752;2022-11-12T05:24:13;12.82;;;3.70;;
46136;SDS011;31871;49.418;8.752;2022-11-12T05:26:39;13.45;;;4.10;;
46136;SDS011;31871;49.418;8.752;2022-11-12T05:29:04;7.00;;;3.90;;
46136;SDS011;31871;49.418;8.752;2022-11-12T05:31:30;7.15;;;3.67;;
46136;SDS011;31871;49.418;8.752;2022-11-12T05:33:56;9.50;;;4.00;;
46136;SDS011;31871;49.418;8.752;2022-11-12T05:36:22;13.45;;;3.95;;
46136;SDS011;31871;49.418;8.752;2022-11-12T05:38:47;9.13;;;4.18;;
46136;SDS011;31871;49.418;8.752;2022-11-12T05:41:13;7.97;;;3.58;;
46136;SDS011;31871;49.418;8.752;2022-11-12T05:43:38;10.35;;;3.50;;
46136;SDS011;31871;49.418;8.752;2022-11-12T05:46:04;8.65;;;3.95;;
46136;SDS011;31871;49.418;8.752;2022-11-12T05:48:30;6.30;;;3.13;;
46136;SDS011;31871;49.418;8.752;2022-11-12T05:50:55;8.60;;;3.55;;
46136;SDS011;31871;49.418;8.752;2022-11-12T05:53:21;9.43;;;3.70;;
46136;SDS011;31871;49.418;8.752;2022-11-12T05:55:47;7.60;;;3.85;;
46136;SDS011;31871;49.418;8.752;2022-11-12T05:58:12;8.10;;;3.00;;
46136;SDS011;31871;49.418;8.752;2022-11-12T06:00:38;8.40;;;3.65;;
46136;SDS011;31871;49.418;8.752;2022-11-12T06:03:04;12.27;;;3.83;;
46136;SDS011;31871;49.418;8.752;2022-11-12T06:05:31;9.55;;;3.72;;
46136;SDS011;31871;49.418;8.752;2022-11-12T06:07:57;7.70;;;3.42;;
46136;SDS011;31871;49.418;8.752;2022-11-12T06:10:23;12.85;;;3.20;;
46136;SDS011;31871;49.418;8.752;2022-11-12T06:12:48;7.20;;;3.08;;
46136;SDS011;31871;49.418;8.752;2022-11-12T06:15:14;7.10;;;3.67;;
46136;SDS011;31871;49.418;8.752;2022-11-12T06:17:40;7.25;;;3.40;;
46136;SDS011;31871;49.418;8.752;2022-11-12T06:20:06;8.57;;;3.90;;
46136;SDS011;31871;49.418;8.752;2022-11-12T06:22:32;9.00;;;3.75;;
46136;SDS011;31871;49.418;8.752;2022-11-12T06:24:57;9.13;;;4.03;;
46136;SDS011;31871;49.418;8.752;2022-11-12T06:27:23;7.85;;;3.80;;
46136;SDS011;31871;49.418;8.752;2022-11-12T06:29:49;7.25;;;3.30;;
46136;SDS011;31871;49.418;8.752;2022-11-12T06:32:14;9.18;;;4.10;;
46136;SDS011;31871;49.418;8.752;2022-11-12T06:34:40;9.40;;;3.47;;
46136;SDS011;31871;49.418;8.752;2022-11-12T06:37:05;12.15;;;3.35;;
46136;SDS011;31871;49.418;8.752;2022-11-12T06:39:31;6.55;;;3.25;;
46136;SDS011;31871;49.418;8.752;2022-11-12T06:41:56;10.25;;;4.07;;
46136;SDS011;31871;49.418;8.752;2022-11-12T06:44:22;7.32;;;3.55;;
46136;SDS011;31871;49.418;8.752;2022-11-12T06:46:47;26.15;;;4.40;;
46136;SDS011;31871;49.418;8.752;2022-11-12T06:49:13;14.57;;;4.20;;
46136;SDS011;31871;49.418;8.752;2022-11-12T06:51:38;8.00;;;3.83;;
46136;SDS011;31871;49.418;8.752;2022-11-12T06:54:04;14.25;;;3.67;;
46136;SDS011;31871;49.418;8.752;2022-11-12T06:56:30;13.50;;;3.58;;
46136;SDS011;31871;49.418;8.752;2022-11-12T06:58:56;11.65;;;4.35;;
46136;SDS011;31871;49.418;8.752;2022-11-12T07:01:21;8.23;;;3.75;;
46136;SDS011;31871;49.418;8.752;2022-11-12T07:03:50;7.63;;;3.50;;
46136;SDS011;31871;49.418;8.752;2022-11-12T07:06:17;16.05;;;3.70;;
46136;SDS011;31871;49.418;8.752;2022-11-12T07:08:44;8.23;;;3.35;;
46136;SDS011;31871;49.418;8.752;2022-11-12T07:11:11;8.93;;;3.95;;
46136;SDS011;31871;49.418;8.752;2022-11-12T07:13:37;7.25;;;3.50;;
46136;SDS011;31871;49.418;8.752;2022-11-12T07:16:04;8.10;;;3.88;;
46136;SDS011;31871;49.418;8.752;2022-11-12T07:18:31;13.40;;;4.18;;
46136;SDS011;31871;49.418;8.752;2022-11-12T07:21:09;9.93;;;4.15;;
46136;SDS011;31871;49.418;8.752;2022-11-12T07:23:36;9.32;;;4.30;;
46136;SDS011;31871;49.418;8.752;2022-11-12T07:26:06;12.55;;;4.07;;
46136;SDS011;31871;49.418;8.752;2022-11-12T07:28:36;12.27;;;4.38;;
46136;SDS011;31871;49.418;8.752;2022-11-12T07:31:03;11.73;;;3.88;;
46136;SDS011;31871;49.418;8.752;2022-11-12T07:33:30;23.92;;;4.15;;
46136;SDS011;31871;49.418;8.752;2022-11-12T07:36:03;9.07;;;4.13;;
46136;SDS011;31871;49.418;8.752;2022-11-12T07:38:33;10.98;;;4.60;;
46136;SDS011;31871;49.418;8.752;2022-11-12T07:43:30;13.02;;;4.03;;
46136;SDS011;31871;49.418;8.752;2022-11-12T07:45:57;10.23;;;4.05;;
46136;SDS011;31871;49.418;8.752;2022-11-12T07:48:24;9.95;;;4.07;;
46136;SDS011;31871;49.418;8.752;2022-11-12T07:50:50;9.57;;;4.30;;
46136;SDS011;31871;49.418;8.752;2022-11-12T07:53:15;9.32;;;4.25;;
46136;SDS011;31871;49.418;8.752;2022-11-12T07:55:41;9.65;;;4.55;;
46136;SDS011;31871;49.418;8.752;2022-11-12T07:58:06;7.07;;;3.20;;
46136;SDS011;31871;49.418;8.752;2022-11-12T08:00:32;11.68;;;3.72;;
46136;SDS011;31871;49.418;8.752;2022-11-12T08:02:58;13.75;;;4.50;;
46136;SDS011;31871;49.418;8.752;2022-11-12T08:05:25;11.70;;;4.38;;
46136;SDS011;31871;49.418;8.752;2022-11-12T08:07:51;11.23;;;4.20;;
46136;SDS011;31871;49.418;8.752;2022-11-12T08:10:19;20.67;;;6.95;;
46136;SDS011;31871;49.418;8.752;2022-11-12T08:12:44;21.42;;;8.48;;
46136;SDS011;31871;49.418;8.752;2022-11-12T08:15:10;12.13;;;4.80;;
46136;SDS011;31871;49.418;8.752;2022-11-12T08:17:38;11.77;;;4.10;;
46136;SDS011;31871;49.418;8.752;2022-11-12T08:20:04;10.45;;;4.40;;
46136;SDS011;31871;49.418;8.752;2022-11-12T08:22:31;14.80;;;5.75;;
46136;SDS011;31871;49.418;8.752;2022-11-12T08:24:56;11.05;;;4.55;;
46136;SDS011;31871;49.418;8.752;2022-11-12T08:27:22;11.75;;;4.25;;
46136;SDS011;31871;49.418;8.752;2022-11-12T08:29:48;8.45;;;4.20;;
46136;SDS011;31871;49.418;8.752;2022-11-12T08:32:13;12.20;;;5.47;;
46136;SDS011;31871;49.418;8.752;2022-11-12T08:34:39;11.43;;;3.80;;
46136;SDS011;31871;49.418;8.752;2022-11-12T08:37:07;9.38;;;3.90;;
46136;SDS011;31871;49.418;8.752;2022-11-12T08:39:33;8.27;;;4.03;;
46136;SDS011;31871;49.418;8.752;2022-11-12T08:41:58;9.95;;;4.13;;
46136;SDS011;31871;49.418;8.752;2022-11-12T08:44:24;13.82;;;5.10;;
46136;SDS011;31871;49.418;8.752;2022-11-12T08:46:50;14.07;;;4.80;;
46136;SDS011;31871;49.418;8.752;2022-11-12T08:49:15;9.13;;;3.80;;
46136;SDS011;31871;49.418;8.752;2022-11-12T08:51:41;9.38;;;3.72;;
46136;SDS011;31871;49.418;8.752;2022-11-12T08:54:06;8.23;;;3.38;;
46136;SDS011;31871;49.418;8.752;2022-11-12T08:56:32;11.25;;;4.30;;
46136;SDS011;31871;49.418;8.752;2022-11-12T08:58:58;8.10;;;3.88;;
46136;SDS011;31871;49.418;8.752;2022-11-12T09:01:24;8.20;;;3.78;;
46136;SDS011;31871;49.418;8.752;2022-11-12T09:03:50;9.82;;;4.05;;
46136;SDS011;31871;49.418;8.752;2022-11-12T09:06:15;11.40;;;4.68;;
46136;SDS011;31871;49.418;8.752;2022-11-12T09:08:41;11.57;;;4.70;;
46136;SDS011;31871;49.418;8.752;2022-11-12T09:11:07;13.40;;;4.80;;
46136;SDS011;31871;49.418;8.752;2022-11-12T09:13:32;8.93;;;3.92;;
46136;SDS011;31871;49.418;8.752;2022-11-12T09:15:59;10.25;;;4.88;;
46136;SDS011;31871;49.418;8.752;2022-11-12T09:18:26;10.20;;;4.32;;
46136;SDS011;31871;49.418;8.752;2022-11-12T09:20:52;11.43;;;5.15;;
46136;SDS011;31871;49.418;8.752;2022-11-12T09:23:17;10.63;;;4.72;;
46136;SDS011;31871;49.418;8.752;2022-11-12T09:25:43;8.15;;;4.53;;
46136;SDS011;31871;49.418;8.752;2022-11-12T09:28:10;13.02;;;5.20;;
46136;SDS011;31871;49.418;8.752;2022-11-12T09:30:37;14.98;;;5.72;;
46136;SDS011;31871;49.418;8.752;2022-11-12T09:33:06;16.83;;;6.60;;
46136;SDS011;31871;49.418;8.752;2022-11-12T09:35:31;14.07;;;6.40;;
46136;SDS011;31871;49.418;8.752;2022-11-12T09:37:57;19.00;;;6.82;;
46136;SDS011;31871;49.418;8.752;2022-11-12T09:40:26;16.92;;;6.90;;
46136;SDS011;31871;49.418;8.752;2022-11-12T09:43:07;16.10;;;6.55;;
46136;SDS011;31871;49.418;8.752;2022-11-12T09:45:36;13.60;;;5.88;;
46136;SDS011;31871;49.418;8.752;2022-11-12T09:48:04;18.48;;;6.20;;
46136;SDS011;31871;49.418;8.752;2022-11-12T09:53:11;13.45;;;5.32;;
46136;SDS011;31871;49.418;8.752;2022-11-12T09:55:45;13.82;;;5.40;;
46136;SDS011;31871;49.418;8.752;2022-11-12T09:58:13;13.98;;;6.18;;
46136;SDS011;31871;49.418;8.752;2022-11-12T10:00:42;14.65;;;5.93;;
46136;SDS011;31871;49.418;8.752;2022-11-12T10:03:23;13.15;;;5.30;;
46136;SDS011;31871;49.418;8.752;2022-11-12T10:05:57;11.50;;;5.45;;
46136;SDS011;31871;49.418;8.752;2022-11-12T10:08:36;18.20;;;6.40;;
46136;SDS011;31871;49.418;8.752;2022-11-12T10:11:17;13.25;;;5.63;;
46136;SDS011;31871;49.418;8.752;2022-11-12T10:16:56;16.50;;;6.10;;
46136;SDS011;31871;49.418;8.752;2022-11-12T10:24:52;14.90;;;6.85;;
46136;SDS011;31871;49.418;8.752;2022-11-12T10:27:20;14.13;;;5.93;;
46136;SDS011;31871;49.418;8.752;2022-11-12T10:29:58;16.40;;;6.82;;
46136;SDS011;31871;49.418;8.752;2022-11-12T10:32:29;16.70;;;7.18;;
46136;SDS011;31871;49.418;8.752;2022-11-12T10:34:55;15.00;;;6.40;;
46136;SDS011;31871;49.418;8.752;2022-11-12T10:37:22;15.07;;;6.75;;
46136;SDS011;31871;49.418;8.752;2022-11-12T10:39:52;30.17;;;7.97;;
46136;SDS011;31871;49.418;8.752;2022-11-12T10:42:18;21.20;;;6.57;;
46136;SDS011;31871;49.418;8.752;2022-11-12T10:44:45;17.88;;;7.55;;
46136;SDS011;31871;49.418;8.752;2022-11-12T10:47:17;15.80;;;6.80;;
46136;SDS011;31871;49.418;8.752;2022-11-12T10:50:05;14.30;;;6.35;;
46136;SDS011;31871;49.418;8.752;2022-11-12T10:52:35;16.50;;;6.40;;
46136;SDS011;31871;49.418;8.752;2022-11-12T10:57:43;13.65;;;5.82;;
46136;SDS011;31871;49.418;8.752;2022-11-12T11:02:42;17.45;;;6.35;;
46136;SDS011;31871;49.418;8.752;2022-11-12T11:05:31;17.05;;;6.95;;
46136;SDS011;31871;49.418;8.752;2022-11-12T11:08:02;17.23;;;7.20;;
46136;SDS011;31871;49.418;8.752;2022-11-12T11:10:33;14.50;;;6.65;;
46136;SDS011;31871;49.418;8.752;2022-11-12T11:13:09;14.60;;;6.25;;
46136;SDS011;31871;49.418;8.752;2022-11-12T11:15:37;15.85;;;7.07;;
46136;SDS011;31871;49.418;8.752;2022-11-12T11:18:03;16.13;;;6.63;;
46136;SDS011;31871;49.418;8.752;2022-11-12T11:20:42;14.23;;;6.40;;
46136;SDS011;31871;49.418;8.752;2022-11-12T11:26:18;12.75;;;5.82;;
46136;SDS011;31871;49.418;8.752;2022-11-12T11:28:55;15.18;;;6.68;;
46136;SDS011;31871;49.418;8.752;2022-11-12T11:34:10;15.57;;;6.68;;
46136;SDS011;31871;49.418;8.752;2022-11-12T11:36:57;17.60;;;6.43;;
46136;SDS011;31871;49.418;8.752;2022-11-12T11:50:28;13.05;;;6.63;;
46136;SDS011;31871;49.418;8.752;2022-11-12T11:55:42;16.40;;;6.85;;
46136;SDS011;31871;49.418;8.752;2022-11-12T12:01:37;15.00;;;6.93;;
46136;SDS011;31871;49.418;8.752;2022-11-12T12:09:53;17.20;;;7.57;;
46136;SDS011;31871;49.418;8.752;2022-11-12T12:12:52;16.02;;;6.80;;
46136;SDS011;31871;49.418;8.752;2022-11-12T12:20:59;18.25;;;8.52;;
46136;SDS011;31871;49.418;8.752;2022-11-12T12:26:18;23.25;;;7.80;;
46136;SDS011;31871;49.418;8.752;2022-11-12T12:31:36;19.80;;;8.32;;
46136;SDS011;31871;49.418;8.752;2022-11-12T12:34:08;16.45;;;6.80;;
46136;SDS011;31871;49.418;8.752;2022-11-12T12:36:39;15.82;;;6.85;;
46136;SDS011;31871;49.418;8.752;2022-11-12T12:41:44;19.02;;;7.80;;
46136;SDS011;31871;49.418;8.752;2022-11-12T12:44:22;14.83;;;7.03;;
46136;SDS011;31871;49.418;8.752;2022-11-12T12:47:10;19.80;;;7.60;;
46136;SDS011;31871;49.418;8.752;2022-11-12T12:49:37;19.10;;;7.10;;
46136;SDS011;31871;49.418;8.752;2022-11-12T12:52:04;16.40;;;7.00;;
46136;SDS011;31871;49.418;8.752;2022-11-12T12:56:58;19.17;;;7.93;;
46136;SDS011;31871;49.418;8.752;2022-11-12T12:59:25;18.30;;;7.55;;
46136;SDS011;31871;49.418;8.752;2022-11-12T13:01:57;19.52;;;7.30;;
46136;SDS011;31871;49.418;8.752;2022-11-12T13:07:38;13.23;;;6.55;;
46136;SDS011;31871;49.418;8.752;2022-11-12T13:15:43;14.60;;;6.55;;
46136;SDS011;31871;49.418;8.752;2022-11-12T13:42:47;17.65;;;7.55;;
46136;SDS011;31871;49.418;8.752;2022-11-12T13:45:17;13.68;;;6.75;;
46136;SDS011;31871;49.418;8.752;2022-11-12T13:47:45;16.63;;;7.45;;
46136;SDS011;31871;49.418;8.752;2022-11-12T13:50:13;15.05;;;6.93;;
46136;SDS011;31871;49.418;8.752;2022-11-12T13:52:42;23.38;;;8.70;;
46136;SDS011;31871;49.418;8.752;2022-11-12T13:55:15;17.70;;;8.15;;
46136;SDS011;31871;49.418;8.752;2022-11-12T13:57:49;19.35;;;7.78;;
46136;SDS011;31871;49.418;8.752;2022-11-12T14:02:42;17.08;;;6.93;;
46136;SDS011;31871;49.418;8.752;2022-11-12T14:05:11;15.55;;;6.53;;
46136;SDS011;31871;49.418;8.752;2022-11-12T14:21:26;14.50;;;6.68;;
46136;SDS011;31871;49.418;8.752;2022-11-12T14:23:52;15.75;;;6.80;;
46136;SDS011;31871;49.418;8.752;2022-11-12T14:29:02;16.10;;;7.25;;
46136;SDS011;31871;49.418;8.752;2022-11-12T14:31:28;18.65;;;7.97;;
46136;SDS011;31871;49.418;8.752;2022-11-12T14:33:54;16.27;;;7.43;;
46136;SDS011;31871;49.418;8.752;2022-11-12T14:36:19;28.55;;;8.40;;
46136;SDS011;31871;49.418;8.752;2022-11-12T14:38:52;18.75;;;7.85;;
46136;SDS011;31871;49.418;8.752;2022-11-12T14:41:21;20.00;;;7.82;;
46136;SDS011;31871;49.418;8.752;2022-11-12T14:43:50;17.83;;;7.22;;
46136;SDS011;31871;49.418;8.752;2022-11-12T14:46:25;15.60;;;7.13;;
46136;SDS011;31871;49.418;8.752;2022-11-12T14:49:00;17.23;;;7.07;;
46136;SDS011;31871;49.418;8.752;2022-11-12T14:51:31;18.17;;;8.23;;
46136;SDS011;31871;49.418;8.752;2022-11-12T14:54:01;16.17;;;7.80;;
46136;SDS011;31871;49.418;8.752;2022-11-12T14:56:32;20.55;;;7.97;;
46136;SDS011;31871;49.418;8.752;2022-11-12T14:59:02;20.48;;;8.05;;
46136;SDS011;31871;49.418;8.752;2022-11-12T15:01:30;16.67;;;7.30;;
46136;SDS011;31871;49.418;8.752;2022-11-12T15:06:35;16.88;;;7.75;;
46136;SDS011;31871;49.418;8.752;2022-11-12T15:09:01;19.08;;;7.72;;
46136;SDS011;31871;49.418;8.752;2022-11-12T15:14:00;20.92;;;8.07;;
46136;SDS011;31871;49.418;8.752;2022-11-12T15:16:31;21.33;;;8.52;;
46136;SDS011;31871;49.418;8.752;2022-11-12T15:21:30;25.67;;;9.15;;
46136;SDS011;31871;49.418;8.752;2022-11-12T15:26:43;25.60;;;8.77;;
46136;SDS011;31871;49.418;8.752;2022-11-12T15:29:29;24.05;;;9.07;;
46136;SDS011;31871;49.418;8.752;2022-11-12T15:37:04;22.65;;;9.73;;
46136;SDS011;31871;49.418;8.752;2022-11-12T15:39:33;23.50;;;9.82;;
46136;SDS011;31871;49.418;8.752;2022-11-12T15:42:11;28.87;;;10.23;;
46136;SDS011;31871;49.418;8.752;2022-11-12T15:44:49;32.60;;;11.00;;
46136;SDS011;31871;49.418;8.752;2022-11-12T15:47:19;32.83;;;12.32;;
46136;SDS011;31871;49.418;8.752;2022-11-12T15:49:49;34.40;;;12.45;;
46136;SDS011;31871;49.418;8.752;2022-11-12T15:52:16;30.83;;;10.68;;
46136;SDS011;31871;49.418;8.752;2022-11-12T15:54:42;30.92;;;11.23;;
46136;SDS011;31871;49.418;8.752;2022-11-12T15:57:19;40.13;;;10.95;;
46136;SDS011;31871;49.418;8.752;2022-11-12T15:59:49;25.88;;;10.43;;
46136;SDS011;31871;49.418;8.752;2022-11-12T16:02:25;25.65;;;9.57;;
46136;SDS011;31871;49.418;8.752;2022-11-12T16:04:51;31.92;;;11.27;;
46136;SDS011;31871;49.418;8.752;2022-11-12T16:07:16;27.48;;;9.88;;
46136;SDS011;31871;49.418;8.752;2022-11-12T16:09:42;40.50;;;12.88;;
46136;SDS011;31871;49.418;8.752;2022-11-12T16:12:11;29.35;;;11.00;;
46136;SDS011;31871;49.418;8.752;2022-11-12T16:14:38;31.08;;;10.82;;
46136;SDS011;31871;49.418;8.752;2022-11-12T16:17:04;25.38;;;9.07;;
46136;SDS011;31871;49.418;8.752;2022-11-12T16:19:34;28.50;;;9.35;;
46136;SDS011;31871;49.418;8.752;2022-11-12T16:22:00;27.25;;;9.95;;
46136;SDS011;31871;49.418;8.752;2022-11-12T16:24:26;29.67;;;10.50;;
46136;SDS011;31871;49.418;8.752;2022-11-12T16:26:51;25.17;;;10.40;;
46136;SDS011;31871;49.418;8.752;2022-11-12T16:29:17;20.42;;;9.40;;
46136;SDS011;31871;49.418;8.752;2022-11-12T16:31:43;21.05;;;9.00;;
46136;SDS011;31871;49.418;8.752;2022-11-12T16:34:09;27.27;;;8.20;;
46136;SDS011;31871;49.418;8.752;2022-11-12T16:36:36;21.27;;;8.95;;
46136;SDS011;31871;49.418;8.752;2022-11-12T16:39:02;21.58;;;8.10;;
46136;SDS011;31871;49.418;8.752;2022-11-12T16:41:28;27.10;;;8.98;;
46136;SDS011;31871;49.418;8.752;2022-11-12T16:43:54;21.05;;;7.97;;
46136;SDS011;31871;49.418;8.752;2022-11-12T16:46:22;22.05;;;8.80;;
46136;SDS011;31871;49.418;8.752;2022-11-12T16:48:50;18.17;;;8.20;;
46136;SDS011;31871;49.418;8.752;2022-11-12T16:51:17;19.33;;;8.07;;
46136;SDS011;31871;49.418;8.752;2022-11-12T16:53:43;20.00;;;9.18;;
46136;SDS011;31871;49.418;8.752;2022-11-12T16:56:27;23.98;;;10.00;;
46136;SDS011;31871;49.418;8.752;2022-11-12T16:58:53;23.52;;;8.73;;
46136;SDS011;31871;49.418;8.752;2022-11-12T17:01:22;26.63;;;9.40;;